createdAt,value
2023-03-07T00:01:27.607Z,63.67
2023-03-07T00:03:31.861Z,64.16
2023-03-07T00:05:33.642Z,63.94
2023-03-07T00:07:36.548Z,63.39
2023-03-07T00:09:38.464Z,64.17
2023-03-07T00:11:40.317Z,63.62
2023-03-07T00:13:42.006Z,63.46
2023-03-07T00:15:43.716Z,63.80
2023-03-07T00:17:45.785Z,63.69
2023-03-07T00:19:47.364Z,64.09
2023-03-07T00:21:49.451Z,63.88
2023-03-07T00:23:53.332Z,64.45
2023-03-07T00:26:00.312Z,63.94
2023-03-07T00:28:02.181Z,63.82
2023-03-07T00:30:05.970Z,64.86
2023-03-07T00:32:08.349Z,63.94
2023-03-07T00:34:09.995Z,64.14
2023-03-07T00:36:14.227Z,64.04
2023-03-07T00:38:15.824Z,64.15
2023-03-07T00:40:19.160Z,63.93
2023-03-07T00:42:20.959Z,65.00
2023-03-07T00:44:22.852Z,64.29
2023-03-07T00:46:26.151Z,64.47
2023-03-07T00:48:28.836Z,64.65
2023-03-07T00:50:30.633Z,64.87
2023-03-07T00:52:34.183Z,64.38
2023-03-07T00:54:35.770Z,64.75
2023-03-07T00:56:39.089Z,64.34
2023-03-07T00:58:41.126Z,64.69
2023-03-07T01:00:42.932Z,64.67
2023-03-07T01:02:44.579Z,65.25
2023-03-07T01:04:46.225Z,64.55
2023-03-07T01:06:48.029Z,65.33
2023-03-07T01:08:49.642Z,65.18
2023-03-07T01:10:51.452Z,65.17
2023-03-07T01:12:54.830Z,65.05
2023-03-07T01:14:56.682Z,65.39
2023-03-07T01:16:58.964Z,66.26
2023-03-07T01:19:06.122Z,65.34
2023-03-07T01:21:13.238Z,64.99
2023-03-07T01:23:14.858Z,65.21
2023-03-07T01:25:16.844Z,65.13
2023-03-07T01:27:18.474Z,65.79
2023-03-07T01:29:21.435Z,65.72
2023-03-07T01:31:24.281Z,66.24
2023-03-07T01:33:26.264Z,66.56
2023-03-07T01:35:28.656Z,66.45
2023-03-07T01:37:30.210Z,66.59
2023-03-07T01:39:31.778Z,66.90
2023-03-07T01:41:34.327Z,67.10
2023-03-07T01:43:37.874Z,66.44
2023-03-07T01:46:22.029Z,65.28
2023-03-07T01:48:25.428Z,66.67
2023-03-07T01:50:28.103Z,66.30
2023-03-07T01:52:33.132Z,66.78
2023-03-07T01:54:39.703Z,65.95
2023-03-07T01:56:42.986Z,66.44
2023-03-07T01:58:46.521Z,66.34
2023-03-07T02:00:48.846Z,66.52
2023-03-07T02:02:57.579Z,66.31
2023-03-07T02:05:06.208Z,66.55
2023-03-07T02:07:09.467Z,66.41
2023-03-07T02:09:15.454Z,66.33
2023-03-07T02:11:17.905Z,66.07
2023-03-07T02:13:19.798Z,65.44
2023-03-07T02:15:21.803Z,66.24
2023-03-07T02:17:24.975Z,66.47
2023-03-07T02:19:37.463Z,66.04
2023-03-07T02:21:46.666Z,66.06
2023-03-07T02:23:56.151Z,66.15
2023-03-07T02:26:06.064Z,66.02
2023-03-07T02:28:11.946Z,65.64
2023-03-07T02:30:13.713Z,66.01
2023-03-07T02:32:15.399Z,66.13
2023-03-07T02:34:22.540Z,66.60
2023-03-07T02:36:29.729Z,66.45
2023-03-07T02:38:33.511Z,66.36
2023-03-07T02:40:35.471Z,66.49
2023-03-07T02:42:40.808Z,65.92
2023-03-07T02:44:46.770Z,66.60
2023-03-07T02:46:48.411Z,66.92
2023-03-07T02:48:50.181Z,66.82
2023-03-07T02:50:51.810Z,66.99
2023-03-07T02:52:53.397Z,66.79
2023-03-07T02:54:55.570Z,66.66
2023-03-07T02:56:57.510Z,66.48
2023-03-07T02:58:59.405Z,66.98
2023-03-07T03:01:02.584Z,66.23
2023-03-07T03:03:04.651Z,67.04
2023-03-07T03:05:08.092Z,66.71
2023-03-07T03:07:09.969Z,66.42
2023-03-07T03:09:12.016Z,66.51
2023-03-07T03:11:13.886Z,66.79
2023-03-07T03:13:15.821Z,66.86
2023-03-07T03:15:17.944Z,67.01
2023-03-07T03:17:21.913Z,66.37
2023-03-07T03:19:23.749Z,65.76
2023-03-07T03:21:25.603Z,65.66
2023-03-07T03:23:28.122Z,66.25
2023-03-07T03:25:29.937Z,66.72
2023-03-07T03:27:32.261Z,65.92
2023-03-07T03:29:34.382Z,65.58
2023-03-07T03:31:35.997Z,65.93
2023-03-07T03:33:39.100Z,65.75
2023-03-07T03:35:40.675Z,64.75
2023-03-07T03:37:44.527Z,64.99
2023-03-07T03:39:46.206Z,64.55
2023-03-07T03:41:47.854Z,64.21
2023-03-07T03:43:49.716Z,64.40
2023-03-07T03:45:54.850Z,64.20
2023-03-07T03:47:59.102Z,63.75
2023-03-07T03:50:02.252Z,64.08
2023-03-07T03:52:04.805Z,64.13
2023-03-07T03:54:06.874Z,63.40
2023-03-07T03:56:10.944Z,63.33
2023-03-07T03:58:12.873Z,63.32
2023-03-07T04:00:14.932Z,63.16
2023-03-07T04:02:16.876Z,63.28
2023-03-07T04:04:18.779Z,63.68
2023-03-07T04:06:24.200Z,63.58
2023-03-07T04:08:26.018Z,63.69
2023-03-07T04:10:27.887Z,63.21
2023-03-07T04:12:29.488Z,63.70
2023-03-07T04:14:31.583Z,63.57
2023-03-07T04:16:33.644Z,64.11
2023-03-07T04:18:36.095Z,63.68
2023-03-07T04:20:37.636Z,63.78
2023-03-07T04:22:40.936Z,64.42
2023-03-07T04:24:42.671Z,64.52
2023-03-07T04:26:44.308Z,64.92
2023-03-07T04:28:46.177Z,64.46
2023-03-07T04:30:48.005Z,64.98
2023-03-07T04:32:49.920Z,65.99
2023-03-07T04:34:51.778Z,66.28
2023-03-07T04:37:03.079Z,66.80
2023-03-07T04:39:07.259Z,67.34
2023-03-07T04:41:12.908Z,66.71
2023-03-07T04:43:16.804Z,67.36
2023-03-07T04:45:18.868Z,67.66
2023-03-07T04:47:20.412Z,68.30
2023-03-07T04:49:23.838Z,68.60
2023-03-07T04:51:27.655Z,68.54
2023-03-07T04:53:29.171Z,68.75
2023-03-07T04:55:32.194Z,69.87
2023-03-07T04:57:34.107Z,68.06
2023-03-07T04:59:35.946Z,69.62
2023-03-07T05:01:37.814Z,69.67
2023-03-07T05:03:39.731Z,70.39
2023-03-07T05:05:41.472Z,71.21
2023-03-07T05:07:44.157Z,70.83
2023-03-07T05:09:47.740Z,70.88
2023-03-07T05:11:53.251Z,70.90
2023-03-07T05:13:55.308Z,70.88
2023-03-07T05:15:58.718Z,71.87
2023-03-07T05:18:00.543Z,71.09
2023-03-07T05:20:02.310Z,71.98
2023-03-07T05:22:04.144Z,72.29
2023-03-07T05:24:06.416Z,73.47
2023-03-07T05:26:08.043Z,72.98
2023-03-07T05:28:11.268Z,73.96
2023-03-07T05:30:13.544Z,72.91
2023-03-07T05:32:15.445Z,72.96
2023-03-07T05:34:17.655Z,73.61
2023-03-07T05:36:19.248Z,73.38
2023-03-07T05:38:20.840Z,73.97
2023-03-07T05:40:22.475Z,73.52
2023-03-07T05:42:24.464Z,73.40
2023-03-07T05:44:27.636Z,73.61
2023-03-07T05:46:29.668Z,73.62
2023-03-07T05:48:31.430Z,74.48
2023-03-07T05:50:33.002Z,74.11
2023-03-07T05:52:34.991Z,74.18
2023-03-07T05:54:37.191Z,74.61
2023-03-07T05:56:39.301Z,75.17
2023-03-07T05:58:41.040Z,75.59
2023-03-07T06:00:44.025Z,75.14
2023-03-07T06:02:45.709Z,75.44
2023-03-07T06:04:47.559Z,75.60
2023-03-07T06:06:49.465Z,75.23
2023-03-07T06:08:51.442Z,75.06
2023-03-07T06:10:55.009Z,76.17
2023-03-07T06:12:56.827Z,76.05
2023-03-07T06:14:58.452Z,75.94
2023-03-07T06:17:01.497Z,76.09
2023-03-07T06:19:02.995Z,76.73
2023-03-07T06:21:07.288Z,75.65
2023-03-07T06:23:09.376Z,76.83
2023-03-07T06:25:10.932Z,77.00
2023-03-07T06:27:12.583Z,76.79
2023-03-07T06:29:14.467Z,76.66
2023-03-07T06:31:18.214Z,76.42
2023-03-07T06:33:21.406Z,76.75
2023-03-07T06:35:23.018Z,76.71
2023-03-07T06:37:24.890Z,76.54
2023-03-07T06:39:26.382Z,76.91
2023-03-07T06:41:28.014Z,77.47
2023-03-07T06:43:59.225Z,76.29
2023-03-07T06:46:01.192Z,77.80
2023-03-07T06:48:03.552Z,77.52
2023-03-07T06:50:09.618Z,77.69
2023-03-07T06:52:11.294Z,77.50
2023-03-07T06:54:13.039Z,77.17
2023-03-07T06:56:14.851Z,77.35
2023-03-07T06:58:16.809Z,78.21
2023-03-07T07:00:19.800Z,77.24
2023-03-07T07:02:21.441Z,77.24
2023-03-07T07:04:23.139Z,76.75
2023-03-07T07:06:26.631Z,77.34
2023-03-07T07:08:28.627Z,77.25
2023-03-07T07:10:30.443Z,76.97
2023-03-07T07:14:34.022Z,76.46
2023-03-07T07:16:35.958Z,76.42
2023-03-07T07:18:37.816Z,76.83
2023-03-07T07:20:39.430Z,76.14
2023-03-07T07:22:42.935Z,76.55
2023-03-07T07:24:44.576Z,75.72
2023-03-07T07:26:46.415Z,75.04
2023-03-07T07:28:48.020Z,75.45
2023-03-07T07:30:49.834Z,75.05
2023-03-07T07:32:51.760Z,74.54
2023-03-07T07:34:53.703Z,73.62
2023-03-07T07:36:55.670Z,73.93
2023-03-07T07:38:58.730Z,73.63
2023-03-07T07:41:00.658Z,73.14
2023-03-07T07:43:02.512Z,72.82
2023-03-07T07:45:04.819Z,73.04
2023-03-07T07:47:07.140Z,72.65
2023-03-07T07:49:09.497Z,72.14
2023-03-07T07:51:11.300Z,72.03
2023-03-07T07:53:13.782Z,71.78
2023-03-07T07:55:17.177Z,72.07
2023-03-07T07:57:19.668Z,72.57
2023-03-07T07:59:22.180Z,71.63
2023-03-07T08:01:25.607Z,71.82
2023-03-07T08:03:27.282Z,71.67
2023-03-07T08:05:28.973Z,71.40
2023-03-07T08:07:30.566Z,70.91
2023-03-07T08:09:32.070Z,70.51
2023-03-07T08:11:35.484Z,70.39
2023-03-07T08:13:37.345Z,70.03
2023-03-07T08:15:39.478Z,69.45
2023-03-07T08:17:41.068Z,70.22
2023-03-07T08:19:42.685Z,69.83
2023-03-07T08:21:44.216Z,69.78
2023-03-07T08:23:45.869Z,69.74
2023-03-07T08:25:47.432Z,70.11
2023-03-07T08:27:51.228Z,69.74
2023-03-07T08:29:53.582Z,69.41
2023-03-07T08:31:55.360Z,70.14
2023-03-07T08:33:57.194Z,69.79
2023-03-07T08:35:59.444Z,70.04
2023-03-07T08:38:01.830Z,69.59
2023-03-07T08:40:03.943Z,70.48
2023-03-07T08:42:06.214Z,69.95
2023-03-07T08:44:09.517Z,69.88
2023-03-07T08:46:11.280Z,69.21
2023-03-07T08:48:13.106Z,69.25
2023-03-07T08:50:14.699Z,68.86
2023-03-07T08:52:16.245Z,69.00
2023-03-07T08:54:18.135Z,68.38
2023-03-07T08:56:20.102Z,68.29
2023-03-07T08:58:21.920Z,68.13
2023-03-07T09:00:25.715Z,68.41
2023-03-07T09:02:27.277Z,68.11
2023-03-07T09:04:28.841Z,67.63
2023-03-07T09:06:31.085Z,68.14
2023-03-07T09:08:32.945Z,68.09
2023-03-07T09:10:35.395Z,67.57
2023-03-07T09:12:36.986Z,67.47
2023-03-07T09:14:38.876Z,67.46
2023-03-07T09:16:42.201Z,67.15
2023-03-07T09:18:43.854Z,67.28
2023-03-07T09:20:45.426Z,67.83
2023-03-07T09:22:47.094Z,67.82
2023-03-07T09:24:48.912Z,67.65
2023-03-07T09:26:50.526Z,67.10
2023-03-07T09:28:52.213Z,67.08
2023-03-07T09:30:54.288Z,67.04
2023-03-07T09:32:57.664Z,66.69
2023-03-07T09:34:59.219Z,66.59
2023-03-07T09:37:01.107Z,66.61
2023-03-07T09:39:03.143Z,66.66
2023-03-07T09:41:21.807Z,66.81
2023-03-07T09:43:27.090Z,66.53
2023-03-07T09:45:45.890Z,67.26
2023-03-07T09:48:17.603Z,66.52
2023-03-07T09:50:26.657Z,66.04
2023-03-07T09:52:33.572Z,66.44
2023-03-07T09:54:41.488Z,66.24
2023-03-07T09:56:46.361Z,66.58
2023-03-07T09:58:54.987Z,66.35
2023-03-07T10:01:00.013Z,66.37
2023-03-07T10:03:14.194Z,66.89
2023-03-07T10:05:27.700Z,65.97
2023-03-07T10:07:29.328Z,65.96
2023-03-07T10:09:31.071Z,66.51
2023-03-07T10:11:58.026Z,66.20
2023-03-07T10:14:18.613Z,66.30
2023-03-07T10:16:28.986Z,67.07
2023-03-07T10:18:54.392Z,65.70
2023-03-07T10:21:07.905Z,65.98
2023-03-07T10:23:26.106Z,65.80
2023-03-07T10:25:29.729Z,66.67
2023-03-07T10:27:32.259Z,66.14
2023-03-07T10:29:40.951Z,66.49
2023-03-07T10:31:48.102Z,66.19
2023-03-07T10:33:51.123Z,66.24
2023-03-07T10:35:59.488Z,65.80
2023-03-07T10:38:13.953Z,66.40
2023-03-07T10:40:21.758Z,65.19
2023-03-07T10:42:25.765Z,65.19
2023-03-07T10:44:31.782Z,64.53
2023-03-07T10:46:33.602Z,64.52
2023-03-07T10:48:38.487Z,64.27
2023-03-07T10:50:46.409Z,64.25
2023-03-07T10:52:51.717Z,63.11
2023-03-07T10:54:54.715Z,63.44
2023-03-07T10:57:05.076Z,61.02
2023-03-07T10:59:08.859Z,60.06
2023-03-07T11:01:17.858Z,60.55
2023-03-07T11:03:27.176Z,58.99
2023-03-07T11:05:31.991Z,60.05
2023-03-07T11:07:35.347Z,60.04
2023-03-07T11:09:47.884Z,59.77
2023-03-07T11:11:53.941Z,60.10
2023-03-07T11:14:07.334Z,59.45
2023-03-07T11:16:15.993Z,59.75
2023-03-07T11:18:29.558Z,59.47
2023-03-07T11:20:48.521Z,59.48
2023-03-07T11:22:50.777Z,59.29
2023-03-07T11:24:56.692Z,59.31
2023-03-07T11:27:00.904Z,59.64
2023-03-07T11:29:10.579Z,59.92
2023-03-07T11:31:23.192Z,58.54
2023-03-07T11:33:39.284Z,58.10
2023-03-07T11:35:56.675Z,58.91
2023-03-07T11:38:07.352Z,59.41
2023-03-07T11:40:22.146Z,59.05
2023-03-07T11:42:33.004Z,59.13
2023-03-07T11:44:43.166Z,59.39
2023-03-07T11:47:17.473Z,59.45
2023-03-07T11:49:34.732Z,59.67
2023-03-07T11:51:47.190Z,60.15
2023-03-07T11:54:01.436Z,60.21
2023-03-07T11:56:21.484Z,60.21
2023-03-07T11:58:49.575Z,59.97
2023-03-07T12:01:07.024Z,58.55
2023-03-07T12:03:39.537Z,59.52
2023-03-07T12:05:58.083Z,58.37
2023-03-07T12:08:16.671Z,58.12
2023-03-07T12:10:31.431Z,56.99
2023-03-07T12:12:47.892Z,56.10
2023-03-07T12:15:02.964Z,55.18
2023-03-07T12:17:20.210Z,55.41
2023-03-07T12:19:54.648Z,55.22
2023-03-07T12:22:12.881Z,53.60
2023-03-07T12:24:21.396Z,52.88
2023-03-07T12:26:28.672Z,52.48
2023-03-07T12:28:39.599Z,52.89
2023-03-07T12:30:54.803Z,51.71
2023-03-07T12:32:57.075Z,51.55
2023-03-07T12:35:03.739Z,52.65
2023-03-07T12:37:09.943Z,53.92
2023-03-07T12:39:20.279Z,55.86
2023-03-07T12:41:36.159Z,56.91
2023-03-07T12:43:44.748Z,58.67
2023-03-07T12:45:56.417Z,59.42
2023-03-07T12:48:07.596Z,60.01
2023-03-07T12:50:15.306Z,59.30
2023-03-07T12:52:30.672Z,59.32
2023-03-07T12:54:38.266Z,57.62
2023-03-07T12:56:50.278Z,57.02
2023-03-07T12:58:56.737Z,57.10
2023-03-07T13:01:04.021Z,57.70
2023-03-07T13:03:06.406Z,56.68
2023-03-07T13:05:18.928Z,56.55
2023-03-07T13:07:25.687Z,56.04
2023-03-07T13:09:28.448Z,55.35
2023-03-07T13:11:32.428Z,55.21
2023-03-07T13:13:54.587Z,55.03
2023-03-07T13:16:07.689Z,54.67
2023-03-07T13:18:26.855Z,54.50
2023-03-07T13:20:40.813Z,54.20
2023-03-07T13:23:00.735Z,54.18
2023-03-07T13:25:36.230Z,54.76
2023-03-07T13:27:45.537Z,55.37
2023-03-07T13:30:17.603Z,54.32
2023-03-07T13:32:52.857Z,55.99
2023-03-07T13:34:55.973Z,54.56
2023-03-07T13:36:57.539Z,55.21
2023-03-07T13:38:59.322Z,54.69
2023-03-07T13:41:01.926Z,54.83
2023-03-07T13:43:05.650Z,55.26
2023-03-07T13:45:37.043Z,54.89
2023-03-07T13:47:42.445Z,53.18
2023-03-07T13:49:45.463Z,52.72
2023-03-07T13:52:20.409Z,53.79
2023-03-07T13:54:24.129Z,55.40
2023-03-07T13:56:29.743Z,55.12
2023-03-07T13:58:34.976Z,54.52
2023-03-07T14:00:41.526Z,53.91
2023-03-07T14:02:44.027Z,53.61
2023-03-07T14:04:48.637Z,53.41
2023-03-07T14:06:54.918Z,52.95
2023-03-07T14:09:01.635Z,52.32
2023-03-07T14:11:15.412Z,52.00
2023-03-07T14:13:30.669Z,50.03
2023-03-07T14:15:38.466Z,50.41
2023-03-07T14:17:55.236Z,49.47
2023-03-07T14:20:09.019Z,49.42
2023-03-07T14:22:23.729Z,50.63
2023-03-07T14:24:50.376Z,50.96
2023-03-07T14:26:57.914Z,51.49
2023-03-07T14:29:02.021Z,51.82
2023-03-07T14:31:04.759Z,51.83
2023-03-07T14:33:06.766Z,51.71
2023-03-07T14:35:09.011Z,51.54
2023-03-07T14:37:17.208Z,51.80
2023-03-07T14:39:20.970Z,51.87
2023-03-07T14:41:35.710Z,52.40
2023-03-07T14:43:49.521Z,52.15
2023-03-07T14:45:58.243Z,51.44
2023-03-07T14:48:31.405Z,50.71
2023-03-07T14:50:33.644Z,49.78
2023-03-07T14:52:36.100Z,48.36
2023-03-07T14:54:38.375Z,48.17
2023-03-07T14:56:40.482Z,48.18
2023-03-07T14:58:50.957Z,48.60
2023-03-07T15:00:58.689Z,48.74
2023-03-07T15:03:05.385Z,48.94
2023-03-07T15:05:15.233Z,49.39
2023-03-07T15:07:21.862Z,49.50
2023-03-07T15:09:24.773Z,47.59
2023-03-07T15:11:31.776Z,48.06
2023-03-07T15:13:38.085Z,48.95
2023-03-07T15:15:45.144Z,49.01
2023-03-07T15:17:47.273Z,51.60
2023-03-07T15:19:55.824Z,57.16
2023-03-07T15:22:00.643Z,58.02
2023-03-07T15:24:02.965Z,59.70
2023-03-07T15:26:07.167Z,59.80
2023-03-07T15:28:18.302Z,59.16
2023-03-07T15:30:25.534Z,59.11
2023-03-07T15:32:34.912Z,57.60
2023-03-07T15:34:38.889Z,57.36
2023-03-07T15:36:40.728Z,56.95
2023-03-07T15:38:44.323Z,56.79
2023-03-07T15:40:48.092Z,55.25
2023-03-07T15:42:52.244Z,55.60
2023-03-07T15:44:56.370Z,54.87
2023-03-07T15:47:03.620Z,55.46
2023-03-07T15:49:07.160Z,54.85
2023-03-07T15:51:15.046Z,55.03
2023-03-07T15:53:25.076Z,54.39
2023-03-07T15:55:27.576Z,54.04
2023-03-07T15:57:33.801Z,53.74
2023-03-07T15:59:38.345Z,53.11
2023-03-07T16:01:40.001Z,52.58
2023-03-07T16:03:49.443Z,52.40
2023-03-07T16:05:53.779Z,51.49
2023-03-07T16:07:57.332Z,50.58
2023-03-07T16:09:59.261Z,50.19
2023-03-07T16:12:01.142Z,49.87
2023-03-07T16:14:02.873Z,50.02
2023-03-07T16:16:07.355Z,49.97
2023-03-07T16:18:09.321Z,50.52
2023-03-07T16:20:14.435Z,49.31
2023-03-07T16:22:19.926Z,48.21
2023-03-07T16:24:21.495Z,48.57
2023-03-07T16:26:25.182Z,49.51
2023-03-07T16:28:26.851Z,49.67
2023-03-07T16:30:32.094Z,49.26
2023-03-07T16:32:33.799Z,50.34
2023-03-07T16:34:35.437Z,50.83
2023-03-07T16:36:37.364Z,50.63
2023-03-07T16:38:40.973Z,50.93
2023-03-07T16:40:44.301Z,50.43
2023-03-07T16:42:48.034Z,50.52
2023-03-07T16:44:51.719Z,50.29
2023-03-07T16:46:58.557Z,50.67
2023-03-07T16:49:00.196Z,51.11
2023-03-07T16:51:02.297Z,51.26
2023-03-07T16:53:04.102Z,51.94
2023-03-07T16:55:11.422Z,52.50
2023-03-07T16:57:16.050Z,51.96
2023-03-07T16:59:20.169Z,52.49
2023-03-07T17:01:22.078Z,52.21
2023-03-07T17:03:23.654Z,52.73
2023-03-07T17:05:28.338Z,52.72
2023-03-07T17:07:30.240Z,52.59
2023-03-07T17:09:32.061Z,52.12
2023-03-07T17:11:36.478Z,51.45
2023-03-07T17:13:38.369Z,51.91
2023-03-07T17:15:40.281Z,51.60
2023-03-07T17:17:43.053Z,51.64
2023-03-07T17:19:44.881Z,51.41
2023-03-07T17:21:46.528Z,52.23
2023-03-07T17:23:48.688Z,51.24
2023-03-07T17:25:50.455Z,51.71
2023-03-07T17:28:00.372Z,52.50
2023-03-07T17:30:01.954Z,51.89
2023-03-07T17:32:04.449Z,51.38
2023-03-07T17:34:06.084Z,51.84
2023-03-07T17:36:09.717Z,52.00
2023-03-07T17:38:11.297Z,51.76
2023-03-07T17:40:13.567Z,51.54
2023-03-07T17:42:15.239Z,52.44
2023-03-07T17:44:18.570Z,51.61
2023-03-07T17:46:21.128Z,52.33
2023-03-07T17:48:22.731Z,52.44
2023-03-07T17:50:24.909Z,52.25
2023-03-07T17:52:26.547Z,52.53
2023-03-07T17:54:28.396Z,52.84
2023-03-07T17:56:29.998Z,52.23
2023-03-07T17:58:31.606Z,53.07
2023-03-07T18:00:34.656Z,52.91
2023-03-07T18:02:36.490Z,52.45
2023-03-07T18:04:38.391Z,52.45
2023-03-07T18:06:41.020Z,53.07
2023-03-07T18:08:42.717Z,52.96
2023-03-07T18:10:44.267Z,52.69
2023-03-07T18:12:46.282Z,52.51
2023-03-07T18:14:48.438Z,52.09
2023-03-07T18:16:51.999Z,52.61
2023-03-07T18:18:59.382Z,52.08
2023-03-07T18:21:05.571Z,51.72
2023-03-07T18:23:07.616Z,51.69
2023-03-07T18:25:13.519Z,51.64
2023-03-07T18:27:15.456Z,51.59
2023-03-07T18:29:17.084Z,51.38
2023-03-07T18:31:20.845Z,50.92
2023-03-07T18:33:24.235Z,51.33
2023-03-07T18:35:26.061Z,51.12
2023-03-07T18:37:28.173Z,51.13
2023-03-07T18:39:29.838Z,50.39
2023-03-07T18:41:33.187Z,50.54
2023-03-07T18:43:35.204Z,50.92
2023-03-07T18:45:37.019Z,50.31
2023-03-07T18:47:38.864Z,50.05
2023-03-07T18:49:42.321Z,49.92
2023-03-07T18:51:43.949Z,50.31
2023-03-07T18:53:45.584Z,50.10
2023-03-07T18:55:47.241Z,50.43
2023-03-07T18:57:49.322Z,50.57
2023-03-07T18:59:50.841Z,50.61
2023-03-07T19:01:52.784Z,51.54
2023-03-07T19:03:56.105Z,50.96
2023-03-07T19:05:59.668Z,51.14
2023-03-07T19:08:01.790Z,51.43
2023-03-07T19:10:04.024Z,50.99
2023-03-07T19:12:06.125Z,51.91
2023-03-07T19:14:08.014Z,52.25
2023-03-07T19:16:13.081Z,52.43
2023-03-07T19:18:15.230Z,51.77
2023-03-07T19:20:17.483Z,52.05
2023-03-07T19:22:20.477Z,52.20
2023-03-07T19:24:22.049Z,52.62
2023-03-07T19:26:24.207Z,52.85
2023-03-07T19:28:26.252Z,52.43
2023-03-07T19:30:28.298Z,52.33
2023-03-07T19:32:30.003Z,52.56
2023-03-07T19:34:31.861Z,52.61
2023-03-07T19:36:33.971Z,53.25
2023-03-07T19:38:37.293Z,52.57
2023-03-07T19:40:39.203Z,53.12
2023-03-07T19:42:40.755Z,52.50
2023-03-07T19:44:42.919Z,52.99
2023-03-07T19:46:44.687Z,52.41
2023-03-07T19:48:47.828Z,52.56
2023-03-07T19:50:49.611Z,52.82
2023-03-07T19:52:52.096Z,52.74
2023-03-07T19:54:55.273Z,52.60
2023-03-07T19:56:57.184Z,52.44
2023-03-07T19:59:01.676Z,51.94
2023-03-07T20:01:07.612Z,51.97
2023-03-07T20:03:12.538Z,52.08
2023-03-07T20:05:14.346Z,51.93
2023-03-07T20:07:16.397Z,51.95
2023-03-07T20:09:18.291Z,51.77
2023-03-07T20:11:26.413Z,52.18
2023-03-07T20:13:28.708Z,51.65
2023-03-07T20:15:30.580Z,50.93
2023-03-07T20:17:33.205Z,51.65
2023-03-07T20:19:35.204Z,51.29
2023-03-07T20:21:37.218Z,51.08
2023-03-07T20:23:39.269Z,50.72
2023-03-07T20:25:41.057Z,49.56
2023-03-07T20:27:44.272Z,49.50
2023-03-07T20:29:45.970Z,49.94
2023-03-07T20:31:47.826Z,49.59
2023-03-07T20:33:50.911Z,49.49
2023-03-07T20:36:00.297Z,49.49
2023-03-07T20:38:02.237Z,49.55
2023-03-07T20:40:04.896Z,49.46
2023-03-07T20:42:06.651Z,48.86
2023-03-07T20:44:12.974Z,49.13
2023-03-07T20:46:16.325Z,48.76
2023-03-07T20:48:18.192Z,48.04
2023-03-07T20:50:19.885Z,48.50
2023-03-07T20:52:21.464Z,48.74
2023-03-07T20:54:23.008Z,48.91
2023-03-07T20:56:26.662Z,49.24
2023-03-07T20:58:28.759Z,49.27
2023-03-07T21:00:32.164Z,49.12
2023-03-07T21:02:34.105Z,49.27
2023-03-07T21:04:35.874Z,49.32
2023-03-07T21:06:39.600Z,49.60
2023-03-07T21:08:41.626Z,49.08
2023-03-07T21:10:43.271Z,49.44
2023-03-07T21:12:44.878Z,49.10
2023-03-07T21:14:46.692Z,49.50
2023-03-07T21:16:50.037Z,49.92
2023-03-07T21:18:51.929Z,49.48
2023-03-07T21:20:53.526Z,49.30
2023-03-07T21:22:55.179Z,49.50
2023-03-07T21:24:56.968Z,50.03
2023-03-07T21:26:58.803Z,49.53
2023-03-07T21:29:00.486Z,48.87
2023-03-07T21:31:03.964Z,49.16
2023-03-07T21:33:07.095Z,49.81
2023-03-07T21:35:09.636Z,49.48
2023-03-07T21:37:11.219Z,49.97
2023-03-07T21:39:13.140Z,49.76
2023-03-07T21:41:15.856Z,50.43
2023-03-07T21:43:17.473Z,49.37
2023-03-07T21:45:19.146Z,49.78
2023-03-07T21:47:20.784Z,50.27
2023-03-07T21:49:24.166Z,51.17
2023-03-07T21:51:25.712Z,51.05
2023-03-07T21:53:27.519Z,50.83
2023-03-07T21:55:29.315Z,50.81
2023-03-07T21:57:30.863Z,51.54
2023-03-07T21:59:32.689Z,50.96
2023-03-07T22:01:34.389Z,51.46
2023-03-07T22:03:36.022Z,50.88
2023-03-07T22:05:39.473Z,51.10
2023-03-07T22:07:41.152Z,51.28
2023-03-07T22:09:42.871Z,51.46
2023-03-07T22:11:44.400Z,51.46
2023-03-07T22:13:45.930Z,51.55
2023-03-07T22:15:47.668Z,50.96
2023-03-07T22:17:49.300Z,51.32
2023-03-07T22:19:50.874Z,51.28
2023-03-07T22:21:53.894Z,50.77
2023-03-07T22:23:56.754Z,50.55
2023-03-07T22:26:03.103Z,50.98
2023-03-07T22:28:05.311Z,50.70
2023-03-07T22:30:08.066Z,50.48
2023-03-07T22:32:10.480Z,50.51
2023-03-07T22:34:12.085Z,50.51
2023-03-07T22:36:14.592Z,50.01
2023-03-07T22:38:18.034Z,49.64
2023-03-07T22:40:19.872Z,49.59
2023-03-07T22:42:21.522Z,49.42
2023-03-07T22:44:23.207Z,49.28
2023-03-07T22:46:25.144Z,48.82
2023-03-07T22:48:27.404Z,49.38
2023-03-07T22:50:29.000Z,49.44
2023-03-07T22:52:30.762Z,48.67
2023-03-07T22:54:34.053Z,48.68
2023-03-07T22:56:35.922Z,48.92
2023-03-07T22:58:38.419Z,48.81
2023-03-07T23:00:41.704Z,48.89
2023-03-07T23:02:43.285Z,48.62
2023-03-07T23:04:45.300Z,49.27
2023-03-07T23:06:46.997Z,49.03
2023-03-07T23:08:50.671Z,49.02
2023-03-07T23:11:00.109Z,49.87
2023-03-07T23:13:02.067Z,48.67
2023-03-07T23:15:04.224Z,48.48
2023-03-07T23:17:05.983Z,48.76
2023-03-07T23:19:08.756Z,48.31
2023-03-07T23:21:13.386Z,49.10
2023-03-07T23:23:15.233Z,49.35
2023-03-07T23:25:16.927Z,48.60
2023-03-07T23:27:20.070Z,49.00
2023-03-07T23:29:21.742Z,48.64
2023-03-07T23:31:25.806Z,49.31
2023-03-07T23:33:27.955Z,49.25
2023-03-07T23:35:32.065Z,48.74
2023-03-07T23:37:33.754Z,48.38
2023-03-07T23:39:36.993Z,49.32
2023-03-07T23:41:39.995Z,49.08
2023-03-07T23:43:43.176Z,48.58
2023-03-07T23:45:45.024Z,49.30
2023-03-07T23:47:47.129Z,49.37
2023-03-07T23:49:49.037Z,49.10
2023-03-07T23:51:50.885Z,49.19
2023-03-07T23:53:52.903Z,48.72
2023-03-07T23:55:54.453Z,48.75
2023-03-07T23:57:56.515Z,49.18
2023-03-07T23:59:59.607Z,48.76
